Time;durP1;ratioP1;P1;durP2;ratioP2;P2;SDS_P1;SDS_P2;PMS_P1;PMS_P2;Temp;Humidity;BMP_temperature;BMP_pressure;BME280_temperature;BME280_humidity;BME280_pressure;Samples;Min_cycle;Max_cycle;Signal;HPM_P1;HPM_P2
2022/10/23 00:01:33;;;;;;;53.90;29.98;;;;;;;12.86;100.00;99152.02;1729802;82;21019;-48
2022/10/23 00:04:04;;;;;;;53.33;30.95;;;;;;;12.84;100.00;99160.52;1712765;82;21494;-47
2022/10/23 00:06:33;;;;;;;56.28;30.88;;;;;;;12.85;100.00;99166.19;1710071;82;21575;-49
2022/10/23 00:09:00;;;;;;;56.73;31.62;;;;;;;12.83;100.00;99167.59;1726945;82;21033;-46
2022/10/23 00:11:29;;;;;;;56.53;31.75;;;;;;;12.84;100.00;99170.63;1723295;82;21358;-48
2022/10/23 00:13:59;;;;;;;59.50;30.32;;;;;;;12.85;100.00;99170.14;1705678;82;21015;-47
2022/10/23 00:16:27;;;;;;;48.87;28.50;;;;;;;12.83;100.00;99166.77;1709490;82;21055;-47
2022/10/23 00:18:54;;;;;;;55.05;30.02;;;;;;;12.81;100.00;99179.22;1722410;82;21000;-47
2022/10/23 00:21:21;;;;;;;55.92;29.67;;;;;;;12.82;100.00;99178.25;1719085;82;21056;-47
2022/10/23 00:23:48;;;;;;;;;;;;;;;12.82;100.00;99178.25;1711953;82;21493;-46
2022/10/23 00:26:17;;;;;;;57.60;33.08;;;;;;;12.76;100.00;99181.31;1714456;83;20144;-49
2022/10/23 00:28:48;;;;;;;51.15;28.27;;;;;;;12.81;100.00;99185.81;1736705;82;20992;-46
2022/10/23 00:31:16;;;;;;;45.33;27.37;;;;;;;12.81;100.00;99183.17;1722494;82;21386;-47
2022/10/23 00:33:44;;;;;;;44.63;26.73;;;;;;;12.79;100.00;99187.71;1721272;82;21058;-49
2022/10/23 00:36:14;;;;;;;42.93;26.77;;;;;;;12.81;100.00;99189.77;1729309;82;21029;-47
2022/10/23 00:38:41;;;;;;;48.55;28.52;;;;;;;12.81;100.00;99188.45;1729199;82;21097;-46
2022/10/23 00:41:14;;;;;;;42.13;27.42;;;;;;;12.80;100.00;99192.02;1745071;82;20989;-47
2022/10/23 00:44:01;;;;;;;50.17;28.02;;;;;;;12.79;100.00;99187.71;1721818;82;20999;-50
2022/10/23 00:46:29;;;;;;;51.18;29.10;;;;;;;12.81;100.00;99190.61;1709847;83;21024;-49
2022/10/23 00:48:57;;;;;;;45.15;28.05;;;;;;;12.80;100.00;99190.70;1724029;82;21003;-46
2022/10/23 00:51:28;;;;;;;53.10;29.40;;;;;;;12.82;100.00;99184.40;1719206;82;21023;-46
2022/10/23 00:53:58;;;;;;;47.88;27.42;;;;;;;12.82;100.00;99187.03;1713020;81;21067;-47
2022/10/23 00:56:25;;;;;;;45.63;26.90;;;;;;;12.85;100.00;99195.21;1734352;82;21014;-46
2022/10/23 00:58:52;;;;;;;;;;;;;;;12.84;100.00;99190.42;1719466;82;21023;-47
2022/10/23 01:01:21;;;;;;;47.05;26.93;;;;;;;12.83;100.00;99196.62;1714362;82;20222;-47
2022/10/23 01:03:49;;;;;;;49.33;28.25;;;;;;;12.82;100.00;99205.95;1729074;82;21062;-48
2022/10/23 01:06:46;;;;;;;47.35;27.30;;;;;;;12.81;100.00;99208.24;1718456;82;21008;-46
2022/10/23 01:09:39;;;;;;;40.08;27.13;;;;;;;12.82;100.00;99204.64;1721936;83;21469;-45
2022/10/23 01:12:47;;;;;;;42.62;26.70;;;;;;;12.80;100.00;99207.38;1741447;82;21031;-47
2022/10/23 01:15:23;;;;;;;43.58;25.23;;;;;;;12.81;100.00;99206.44;1740244;81;21003;-49
2022/10/23 01:17:58;;;;;;;41.85;24.70;;;;;;;12.80;100.00;99207.38;1737048;82;21033;-47
2022/10/23 01:20:44;;;;;;;40.23;24.98;;;;;;;12.77;100.00;99206.73;1736798;82;21025;-46
2022/10/23 01:23:37;;;;;;;39.25;24.65;;;;;;;12.73;100.00;99215.80;1709220;81;21027;-48
2022/10/23 01:26:16;;;;;;;39.33;23.80;;;;;;;12.73;100.00;99214.48;1727963;82;21051;-49
2022/10/23 01:29:18;;;;;;;39.27;22.95;;;;;;;12.70;100.00;99214.67;1724877;82;21500;-49
2022/10/23 01:32:11;;;;;;;37.00;23.52;;;;;;;12.64;100.00;99207.56;1724246;82;20988;-45
2022/10/23 01:34:49;;;;;;;39.95;23.00;;;;;;;12.64;100.00;99202.28;1731617;82;21018;-47
2022/10/23 01:37:22;;;;;;;42.62;25.02;;;;;;;12.63;100.00;99207.66;1695250;82;21016;-46
2022/10/23 01:39:52;;;;;;;38.58;24.07;;;;;;;12.61;100.00;99209.06;1708893;82;21532;-46
2022/10/23 01:42:24;;;;;;;41.25;25.40;;;;;;;12.61;100.00;99209.55;1713130;82;21006;-47
2022/10/23 01:45:06;;;;;;;41.13;26.12;;;;;;;12.62;100.00;99213.86;1736164;82;21519;-47
2022/10/23 01:47:35;;;;;;;39.85;25.15;;;;;;;12.64;100.00;99210.64;1730721;81;21016;-47
2022/10/23 01:50:05;;;;;;;42.43;25.75;;;;;;;12.62;100.00;99205.46;1726368;82;20996;-47
2022/10/23 01:52:32;;;;;;;42.43;25.57;;;;;;;12.61;100.00;99209.55;1723811;82;20997;-48
2022/10/23 01:55:00;;;;;;;51.30;26.93;;;;;;;12.61;100.00;99209.55;1719800;82;21369;-47
2022/10/23 01:57:30;;;;;;;45.20;25.85;;;;;;;12.63;100.00;99208.48;1731140;82;21414;-47
2022/10/23 02:00:08;;;;;;;44.80;27.75;;;;;;;12.64;100.00;99203.59;1731793;81;21135;-46
2022/10/23 02:02:37;;;;;;;43.78;26.10;;;;;;;12.65;100.00;99203.12;1728213;81;21034;-46
2022/10/23 02:05:09;;;;;;;40.98;25.65;;;;;;;12.66;100.00;99205.66;1726509;81;21017;-46
2022/10/23 02:07:36;;;;;;;44.00;26.85;;;;;;;12.68;100.00;99198.97;1727181;82;21067;-46
2022/10/23 02:10:08;;;;;;;40.67;26.70;;;;;;;12.68;100.00;99202.45;1720164;81;21043;-46
2022/10/23 02:13:06;;;;;;;44.80;25.15;;;;;;;12.67;100.00;99209.97;1720655;82;21008;-46
2022/10/23 02:15:47;;;;;;;38.92;24.92;;;;;;;12.67;100.00;99213.09;1730379;82;21002;-45
2022/10/23 02:18:32;;;;;;;45.98;26.00;;;;;;;12.67;100.00;99216.57;1671489;85;21023;-46
2022/10/23 02:21:16;;;;;;;42.78;26.05;;;;;;;12.72;100.00;99219.41;1682041;85;21088;-48
2022/10/23 02:24:11;;;;;;;46.25;25.92;;;;;;;12.65;100.00;99218.95;1654216;85;21034;-46
2022/10/23 02:26:42;;;;;;;42.88;25.95;;;;;;;12.66;100.00;99220.17;1654401;84;21026;-50
2022/10/23 02:29:32;;;;;;;35.05;24.10;;;;;;;12.67;100.00;99223.64;1675479;85;21503;-46
2022/10/23 02:32:00;;;;;;;41.58;25.32;;;;;;;12.67;100.00;99223.64;1657525;86;21072;-46
2022/10/23 02:34:27;;;;;;;40.08;26.27;;;;;;;12.67;100.00;99225.80;1657285;86;21029;-47
2022/10/23 02:36:54;;;;;;;40.98;26.23;;;;;;;12.67;100.00;99229.77;1655385;86;21068;-47
2022/10/23 02:39:23;;;;;;;46.60;27.67;;;;;;;12.69;100.00;99225.70;1658235;86;21056;-47
2022/10/23 02:41:56;;;;;;;46.30;27.70;;;;;;;12.71;100.00;99221.66;1656005;83;21140;-46
2022/10/23 02:44:42;;;;;;;42.80;26.12;;;;;;;12.75;100.00;99228.42;1680412;84;21028;-48
2022/10/23 02:47:24;;;;;;;38.02;25.77;;;;;;;12.77;100.00;99219.92;1695193;84;21251;-46
2022/10/23 02:50:12;;;;;;;46.60;27.58;;;;;;;12.81;100.00;99228.03;1651735;86;21559;-46
2022/10/23 02:52:50;;;;;;;49.30;27.80;;;;;;;12.81;100.00;99222.76;1642346;86;21112;-49
2022/10/23 02:55:40;;;;;;;45.38;27.20;;;;;;;12.81;100.00;99228.88;1665709;84;21064;-47
2022/10/23 02:58:18;;;;;;;44.27;27.48;;;;;;;12.84;100.00;99230.45;1706468;83;21578;-47
2022/10/23 03:00:50;;;;;;;48.65;28.40;;;;;;;12.87;100.00;99228.94;1711918;82;21043;-47
2022/10/23 03:03:22;;;;;;;50.20;27.50;;;;;;;12.85;100.00;99225.08;1707879;83;20999;-47
2022/10/23 03:05:49;;;;;;;49.15;28.85;;;;;;;12.91;100.00;99228.27;1694296;83;21044;-49
2022/10/23 03:08:16;;;;;;;45.52;29.63;;;;;;;12.91;100.00;99234.38;1705407;81;21562;-48
2022/10/23 03:10:43;;;;;;;48.50;28.43;;;;;;;12.92;100.00;99240.53;1751933;80;21362;-46
2022/10/23 03:13:10;;;;;;;53.68;30.60;;;;;;;12.92;100.00;99241.84;1748351;80;21681;-46
2022/10/23 03:15:37;;;;;;;51.23;29.15;;;;;;;12.92;100.00;99241.36;1765207;80;21062;-46
2022/10/23 03:18:04;;;;;;;57.43;31.10;;;;;;;12.90;100.00;99243.72;1768547;80;21010;-47
2022/10/23 03:20:30;;;;;;;54.27;30.57;;;;;;;12.87;100.00;99246.93;1755540;81;22239;-45
2022/10/23 03:22:57;;;;;;;47.87;30.77;;;;;;;12.89;100.00;99242.88;1760644;80;21523;-46
2022/10/23 03:25:24;;;;;;;50.63;32.20;;;;;;;12.87;100.00;99250.05;1752093;80;20998;-46
2022/10/23 03:27:50;;;;;;;49.70;31.10;;;;;;;12.86;100.00;99249.66;1761645;80;21014;-47
2022/10/23 03:30:18;;;;;;;47.90;30.97;;;;;;;12.84;100.00;99251.11;1761736;80;21677;-45
2022/10/23 03:32:44;;;;;;;;;;;;;;;12.85;100.00;99246.19;1752714;80;21125;-45
2022/10/23 03:35:11;;;;;;;47.93;31.48;;;;;;;12.86;100.00;99249.22;1756366;80;20104;-46
2022/10/23 03:37:38;;;;;;;50.07;31.77;;;;;;;12.86;100.00;99249.66;1759150;80;21001;-48
2022/10/23 03:40:06;;;;;;;54.83;32.03;;;;;;;12.83;100.00;99253.84;1764991;80;21053;-48
2022/10/23 03:42:33;;;;;;;49.77;31.90;;;;;;;12.82;100.00;99252.14;1698114;83;21030;-48
2022/10/23 03:44:59;;;;;;;51.60;32.10;;;;;;;12.80;100.00;99246.95;1750949;80;21554;-45
2022/10/23 03:47:26;;;;;;;58.03;33.10;;;;;;;12.79;100.00;99243.97;1710957;82;21021;-45
2022/10/23 03:49:53;;;;;;;49.63;32.33;;;;;;;12.81;100.00;99247.83;1750570;80;21050;-48
2022/10/23 03:52:20;;;;;;;58.50;32.10;;;;;;;12.83;100.00;99255.17;1704564;83;20987;-45
2022/10/23 03:54:46;;;;;;;54.97;30.43;;;;;;;12.85;100.00;99258.55;1750668;81;21007;-46
2022/10/23 03:57:13;;;;;;;53.28;32.25;;;;;;;12.84;100.00;99260.34;1698732;82;21049;-50
2022/10/23 03:59:40;;;;;;;61.17;32.67;;;;;;;12.84;100.00;99262.98;1701473;83;21022;-47
2022/10/23 04:02:07;;;;;;;57.27;30.25;;;;;;;12.83;100.00;99265.72;1758899;80;21034;-46
2022/10/23 04:04:33;;;;;;;52.53;30.80;;;;;;;12.84;100.00;99268.72;1760395;80;21014;-49
2022/10/23 04:07:00;;;;;;;56.70;32.10;;;;;;;12.84;100.00;99268.72;1773463;80;22313;-49
2022/10/23 04:09:27;;;;;;;53.20;31.12;;;;;;;12.82;100.00;99270.16;1757744;80;21010;-46
2022/10/23 04:11:55;;;;;;;57.65;31.40;;;;;;;12.82;100.00;99268.84;1764133;80;21050;-47
2022/10/23 04:14:22;;;;;;;56.18;30.65;;;;;;;12.82;100.00;99271.93;1751297;80;21526;-49
2022/10/23 04:16:49;;;;;;;54.00;30.00;;;;;;;12.84;100.00;99276.63;1756370;80;21013;-47
2022/10/23 04:19:16;;;;;;;47.43;28.60;;;;;;;12.84;100.00;99272.67;1759542;80;20979;-46
2022/10/23 04:21:43;;;;;;;53.52;29.05;;;;;;;12.81;100.00;99276.37;1774043;80;21781;-45
2022/10/23 04:24:10;;;;;;;49.53;29.37;;;;;;;12.79;100.00;99271.67;1767313;80;21054;-49
2022/10/23 04:26:37;;;;;;;53.63;28.65;;;;;;;12.79;100.00;99265.56;1750347;80;20982;-49
2022/10/23 04:29:04;;;;;;;45.63;28.63;;;;;;;12.80;100.00;99265.43;1754617;80;21049;-47
2022/10/23 04:31:30;;;;;;;56.37;30.23;;;;;;;12.80;100.00;99269.39;1757632;80;21269;-46
2022/10/23 04:33:57;;;;;;;56.13;29.93;;;;;;;12.80;100.00;99269.87;1751854;81;21007;-49
2022/10/23 04:36:24;;;;;;;55.63;30.00;;;;;;;12.84;100.00;99272.67;1752927;80;21014;-49
2022/10/23 04:38:52;;;;;;;50.53;29.23;;;;;;;12.88;100.00;99270.23;1752788;80;21490;-46
2022/10/23 04:41:18;;;;;;;60.75;30.00;;;;;;;12.91;100.00;99271.81;1750918;80;23155;-46
2022/10/23 04:43:45;;;;;;;56.00;30.23;;;;;;;12.93;100.00;99271.23;1749683;80;21007;-47
2022/10/23 04:46:12;;;;;;;48.37;28.47;;;;;;;12.94;100.00;99268.98;1754065;81;21002;-48
2022/10/23 04:48:38;;;;;;;54.83;29.20;;;;;;;12.94;100.00;99263.22;1760285;80;21907;-47
2022/10/23 04:51:05;;;;;;;57.33;29.00;;;;;;;12.95;100.00;99264.06;1753754;80;21017;-47
2022/10/23 04:53:32;;;;;;;58.02;30.12;;;;;;;12.95;100.00;99273.30;1697759;82;21552;-47
2022/10/23 04:56:00;;;;;;;54.60;28.55;;;;;;;12.95;100.00;99266.25;1694986;83;21030;-46
2022/10/23 04:58:28;;;;;;;;;;;;;;;12.97;100.00;99270.95;1697615;83;21494;-47
2022/10/23 05:00:55;;;;;;;56.37;30.65;;;;;;;12.97;100.00;99272.72;1704034;82;20133;-46
2022/10/23 05:03:23;;;;;;;55.35;30.72;;;;;;;12.97;100.00;99265.67;1703709;83;21000;-45
2022/10/23 05:05:55;;;;;;;58.30;30.37;;;;;;;12.97;100.00;99269.63;1721253;81;21066;-47
2022/10/23 05:08:22;;;;;;;64.58;31.15;;;;;;;12.99;100.00;99273.02;1694477;83;21566;-46
2022/10/23 05:10:50;;;;;;;59.63;31.48;;;;;;;13.01;100.00;99279.03;1694818;83;20994;-47
2022/10/23 05:13:18;;;;;;;67.22;30.35;;;;;;;13.02;100.00;99280.73;1700270;83;21566;-48
2022/10/23 05:15:50;;;;;;;56.53;30.70;;;;;;;13.04;100.00;99284.13;1699800;82;21125;-46
2022/10/23 05:18:34;;;;;;;56.10;29.63;;;;;;;13.05;100.00;99277.87;1707408;82;21034;-47
2022/10/23 05:21:09;;;;;;;58.60;29.82;;;;;;;13.06;100.00;99284.86;1704315;83;21027;-48
2022/10/23 05:23:40;;;;;;;56.30;29.42;;;;;;;13.04;100.00;99282.80;1698316;83;21524;-47
2022/10/23 05:26:07;;;;;;;58.70;29.60;;;;;;;13.03;100.00;99281.09;1701459;82;20999;-48
2022/10/23 05:28:34;;;;;;;60.28;31.68;;;;;;;13.02;100.00;99287.34;1699036;83;21030;-46
2022/10/23 05:31:04;;;;;;;51.88;29.77;;;;;;;13.03;100.00;99280.26;1701496;83;21107;-46
2022/10/23 05:33:32;;;;;;;50.40;28.15;;;;;;;13.05;100.00;99285.80;1701993;83;21547;-47
2022/10/23 05:36:00;;;;;;;51.37;29.45;;;;;;;13.06;100.00;99286.19;1695475;83;21092;-49
2022/10/23 05:38:29;;;;;;;46.68;27.52;;;;;;;13.08;100.00;99282.58;1726368;81;20997;-46
2022/10/23 05:40:56;;;;;;;45.03;27.60;;;;;;;13.04;100.00;99284.57;1686257;83;21020;-47
2022/10/23 05:43:26;;;;;;;51.55;29.25;;;;;;;13.06;100.00;99286.63;1703951;83;21492;-46
2022/10/23 05:45:53;;;;;;;57.35;27.58;;;;;;;13.08;100.00;99286.09;1757430;80;21528;-48
2022/10/23 05:48:19;;;;;;;;;;;;;;;13.08;100.00;99289.18;1763893;79;21019;-46
2022/10/23 05:50:46;;;;;;;51.10;28.62;;;;;;;13.06;100.00;99288.83;1752511;80;20190;-46
2022/10/23 05:53:12;;;;;;;44.95;27.20;;;;;;;13.09;100.00;99290.88;1768789;80;20984;-47
2022/10/23 05:55:39;;;;;;;49.50;26.67;;;;;;;13.10;100.00;99292.11;1768737;80;21015;-47
2022/10/23 05:58:06;;;;;;;47.80;27.20;;;;;;;13.12;100.00;99292.02;1757037;80;21029;-47
2022/10/23 06:00:33;;;;;;;44.03;26.02;;;;;;;13.09;100.00;99284.28;1750492;80;21480;-47
2022/10/23 06:03:00;;;;;;;41.17;25.43;;;;;;;13.11;100.00;99288.98;1758236;80;21121;-49
2022/10/23 06:05:27;;;;;;;46.45;25.77;;;;;;;13.13;100.00;99297.65;1767823;80;21010;-46
2022/10/23 06:07:58;;;;;;;42.90;24.40;;;;;;;13.14;100.00;99291.44;1749546;80;20983;-47
2022/10/23 06:10:26;;;;;;;43.52;23.87;;;;;;;13.12;100.00;99294.66;1751750;80;21697;-48
2022/10/23 06:12:53;;;;;;;40.45;22.50;;;;;;;13.13;100.00;99298.97;1758745;80;22246;-46
2022/10/23 06:15:20;;;;;;;43.13;22.93;;;;;;;13.14;100.00;99292.75;1766966;80;21018;-46
2022/10/23 06:17:46;;;;;;;41.45;23.07;;;;;;;13.09;100.00;99295.68;1756532;80;21038;-46
2022/10/23 06:20:13;;;;;;;34.57;22.03;;;;;;;13.10;100.00;99296.52;1756970;80;21487;-45
2022/10/23 06:22:40;;;;;;;35.33;18.93;;;;;;;13.07;100.00;99302.86;1758017;80;21010;-45
2022/10/23 06:25:08;;;;;;;35.07;20.13;;;;;;;13.04;100.00;99303.92;1754860;80;21289;-46
2022/10/23 06:27:34;;;;;;;29.30;18.35;;;;;;;13.05;100.00;99306.91;1759694;80;21500;-46
2022/10/23 06:30:01;;;;;;;31.20;16.87;;;;;;;13.03;100.00;99306.17;1754831;80;20992;-45
2022/10/23 06:32:31;;;;;;;20.77;14.85;;;;;;;13.01;100.00;99311.19;1763576;80;21688;-46
2022/10/23 06:34:58;;;;;;;21.20;14.38;;;;;;;12.98;100.00;99314.86;1762649;80;20978;-45
2022/10/23 06:37:24;;;;;;;23.03;13.63;;;;;;;12.98;100.00;99319.30;1759518;80;21062;-46
2022/10/23 06:39:51;;;;;;;23.63;14.37;;;;;;;13.00;100.00;99321.36;1761013;80;21723;-47
2022/10/23 06:42:18;;;;;;;25.20;15.90;;;;;;;12.98;100.00;99321.45;1756283;80;21503;-45
2022/10/23 06:44:44;;;;;;;24.10;15.80;;;;;;;12.98;100.00;99321.45;1752862;81;21038;-47
2022/10/23 06:47:13;;;;;;;27.47;15.63;;;;;;;13.00;100.00;99324.84;1750455;80;21697;-48
2022/10/23 06:49:39;;;;;;;25.82;15.58;;;;;;;12.99;100.00;99317.05;1751982;79;20971;-49
2022/10/23 06:52:06;;;;;;;25.63;16.37;;;;;;;12.93;100.00;99323.55;1756701;80;21553;-45
2022/10/23 06:54:33;;;;;;;27.80;16.23;;;;;;;12.93;100.00;99323.55;1753144;80;21013;-48
2022/10/23 06:57:00;;;;;;;31.00;18.02;;;;;;;12.91;100.00;99322.80;1755046;80;21488;-47
2022/10/23 06:59:27;;;;;;;29.45;18.07;;;;;;;12.92;100.00;99327.14;1765822;80;20975;-46
2022/10/23 07:01:54;;;;;;;29.70;18.27;;;;;;;12.93;100.00;99316.11;1765843;80;21011;-46
2022/10/23 07:04:20;;;;;;;31.93;18.13;;;;;;;12.94;100.00;99321.29;1766306;80;21381;-48
2022/10/23 07:06:47;;;;;;;31.80;18.10;;;;;;;12.89;100.00;99316.77;1756727;79;20986;-46
2022/10/23 07:09:14;;;;;;;30.60;19.00;;;;;;;12.87;100.00;99314.71;1754448;81;21524;-46
2022/10/23 07:11:40;;;;;;;33.40;20.70;;;;;;;12.86;100.00;99317.84;1763455;79;21401;-44
2022/10/23 07:14:07;;;;;;;39.03;19.67;;;;;;;12.87;100.00;99323.95;1765600;80;21017;-45
2022/10/23 07:16:34;;;;;;;27.53;17.67;;;;;;;12.90;100.00;99330.36;1756594;80;21046;-46
2022/10/23 07:19:01;;;;;;;25.83;15.63;;;;;;;12.93;100.00;99327.50;1764820;80;21407;-45
2022/10/23 07:21:31;;;;;;;28.23;16.50;;;;;;;12.93;100.00;99329.30;1756577;80;21144;-46
2022/10/23 07:23:58;;;;;;;30.88;16.17;;;;;;;12.93;100.00;99320.06;1759604;80;21291;-45
2022/10/23 07:26:24;;;;;;;26.77;15.13;;;;;;;12.94;100.00;99320.45;1752396;80;20975;-49
2022/10/23 07:28:54;;;;;;;23.92;16.15;;;;;;;12.89;100.00;99323.37;1751385;80;21018;-48
2022/10/23 07:31:22;;;;;;;28.38;16.42;;;;;;;12.91;100.00;99312.72;1760132;79;21034;-46
2022/10/23 07:33:49;;;;;;;25.12;16.62;;;;;;;12.94;100.00;99316.49;1767064;80;20983;-45
2022/10/23 07:36:17;;;;;;;33.50;17.48;;;;;;;12.98;100.00;99321.45;1752679;80;21015;-46
2022/10/23 07:38:45;;;;;;;27.13;16.10;;;;;;;12.98;100.00;99320.14;1771837;81;21492;-47
2022/10/23 07:41:12;;;;;;;22.73;14.90;;;;;;;12.97;100.00;99318.47;1760779;80;20998;-45
2022/10/23 07:43:38;;;;;;;28.30;15.78;;;;;;;13.00;100.00;99314.28;1751499;80;20996;-45
2022/10/23 07:46:07;;;;;;;24.10;14.90;;;;;;;13.04;100.00;99312.29;1752119;80;21049;-47
2022/10/23 07:48:34;;;;;;;26.37;15.58;;;;;;;13.10;100.00;99315.00;1762664;81;21480;-46
2022/10/23 07:51:07;;;;;;;20.92;13.90;;;;;;;13.14;100.00;99308.59;1763213;80;21017;-48
2022/10/23 07:53:34;;;;;;;19.37;14.90;;;;;;;13.18;100.00;99306.95;1746977;80;21002;-46
2022/10/23 07:56:05;;;;;;;21.75;14.28;;;;;;;13.26;100.00;99307.77;1752457;80;21500;-48
2022/10/23 07:58:32;;;;;;;30.55;15.70;;;;;;;13.36;100.00;99308.89;1754448;81;21006;-46
2022/10/23 08:01:02;;;;;;;23.53;15.50;;;;;;;13.37;100.00;99305.31;1773939;79;21477;-45
2022/10/23 08:03:31;;;;;;;23.70;16.57;;;;;;;13.47;100.00;99312.63;1756849;80;21250;-47
2022/10/23 08:05:59;;;;;;;28.12;16.45;;;;;;;13.47;100.00;99308.17;1756135;80;21571;-47
2022/10/23 08:08:26;;;;;;;25.25;16.35;;;;;;;13.51;100.00;99308.33;1752860;80;21046;-46
2022/10/23 08:10:54;;;;;;;24.77;16.55;;;;;;;13.46;100.00;99306.47;1752267;80;21027;-46
2022/10/23 08:13:21;;;;;;;30.40;17.82;;;;;;;13.54;100.00;99316.06;1764000;79;21572;-45
2022/10/23 08:15:50;;;;;;;24.90;17.12;;;;;;;13.56;100.00;99312.84;1766976;79;21046;-46
2022/10/23 08:18:18;;;;;;;29.27;17.55;;;;;;;13.50;100.00;99317.67;1756328;80;21013;-44
2022/10/23 08:20:47;;;;;;;24.80;17.07;;;;;;;13.52;100.00;99315.80;1760390;80;21534;-44
2022/10/23 08:23:17;;;;;;;25.85;17.98;;;;;;;13.49;100.00;99315.52;1760319;80;21018;-45
2022/10/23 08:25:45;;;;;;;26.30;17.95;;;;;;;13.49;100.00;99317.33;1749533;80;21006;-45
2022/10/23 08:28:12;;;;;;;29.50;17.42;;;;;;;13.45;100.00;99320.64;1756434;80;21041;-46
2022/10/23 08:30:38;;;;;;;29.40;18.35;;;;;;;13.35;100.00;99328.34;1761193;80;21013;-46
2022/10/23 08:33:06;;;;;;;27.40;18.07;;;;;;;13.29;100.00;99333.98;1751156;80;21062;-47
2022/10/23 08:35:37;;;;;;;30.55;18.57;;;;;;;13.21;100.00;99329.20;1752672;80;21783;-47
2022/10/23 08:38:04;;;;;;;32.13;18.10;;;;;;;13.14;100.00;99334.52;1756583;80;20978;-45
2022/10/23 08:40:32;;;;;;;26.55;18.00;;;;;;;13.11;100.00;99332.55;1754781;80;21053;-45
2022/10/23 08:43:02;;;;;;;;;;;;;;;13.08;100.00;99332.29;1765953;80;21351;-48
2022/10/23 08:45:46;;;;;;;25.23;17.17;;;;;;;13.00;100.00;99334.08;1729889;79;20129;-47
2022/10/23 08:48:27;;;;;;;25.40;18.35;;;;;;;13.01;100.00;99340.23;1759629;80;21512;-45
2022/10/23 08:51:02;;;;;;;23.02;16.62;;;;;;;13.01;100.00;99343.70;1759880;79;21554;-49
2022/10/23 08:53:59;;;;;;;26.30;16.85;;;;;;;13.02;100.00;99341.45;1749961;80;21685;-43
2022/10/23 08:56:37;;;;;;;25.25;17.12;;;;;;;13.07;100.00;99345.10;1749631;80;21554;-47
2022/10/23 08:59:27;;;;;;;26.42;15.83;;;;;;;13.09;100.00;99345.01;1769599;80;21011;-44
2022/10/23 09:02:25;;;;;;;33.95;17.52;;;;;;;13.11;100.00;99345.27;1758310;81;20992;-46
2022/10/23 09:04:55;;;;;;;27.85;16.10;;;;;;;13.13;100.00;99345.17;1751688;81;20986;-46
2022/10/23 09:07:45;;;;;;;27.75;17.62;;;;;;;13.19;100.00;99343.47;1753270;81;21026;-55
2022/10/23 09:10:26;;;;;;;27.87;15.32;;;;;;;13.22;100.00;99345.89;1754376;81;21517;-45
2022/10/23 09:13:02;;;;;;;28.87;16.82;;;;;;;13.24;100.00;99347.95;1757503;80;21025;-44
2022/10/23 09:15:41;;;;;;;23.62;15.80;;;;;;;13.22;100.00;99349.85;1761995;80;21566;-46
2022/10/23 09:18:14;;;;;;;24.98;16.32;;;;;;;13.21;100.00;99352.14;1755772;81;21116;-45
2022/10/23 09:20:45;;;;;;;21.95;14.45;;;;;;;13.31;100.00;99355.05;1757339;81;21027;-46
2022/10/23 09:23:19;;;;;;;24.02;14.50;;;;;;;13.39;100.00;99358.88;1757393;81;21059;-47
2022/10/23 09:25:54;;;;;;;23.00;14.93;;;;;;;13.47;100.00;99364.97;1755443;81;21065;-45
2022/10/23 09:28:25;;;;;;;20.32;13.65;;;;;;;13.51;100.00;99362.49;1751824;81;21508;-46
2022/10/23 09:30:52;;;;;;;21.62;14.93;;;;;;;13.54;100.00;99366.75;1759909;81;21001;-46
2022/10/23 09:33:26;;;;;;;19.50;13.70;;;;;;;13.60;100.00;99373.77;1760781;81;20989;-47
2022/10/23 09:36:08;;;;;;;20.60;14.20;;;;;;;13.65;100.00;99374.80;1756431;80;21053;-45
2022/10/23 09:38:48;;;;;;;24.47;14.53;;;;;;;13.72;100.00;99383.17;1761008;80;21043;-48
2022/10/23 09:41:38;;;;;;;21.52;13.88;;;;;;;13.78;100.00;99382.27;1761246;80;21080;-47
2022/10/23 09:44:26;;;;;;;23.00;13.43;;;;;;;13.89;100.00;99380.22;1756662;80;21019;-45
2022/10/23 09:47:07;;;;;;;19.70;12.58;;;;;;;13.89;100.00;99376.74;1754530;80;21021;-45
2022/10/23 09:49:34;;;;;;;20.32;13.20;;;;;;;13.94;100.00;99379.92;1763639;80;21011;-44
2022/10/23 09:52:13;;;;;;;21.57;13.55;;;;;;;14.12;100.00;99375.19;1727013;80;21061;-45
2022/10/23 09:55:02;;;;;;;22.60;13.95;;;;;;;14.19;99.25;99372.49;1749934;80;21033;-48
2022/10/23 09:57:35;;;;;;;26.85;14.15;;;;;;;14.20;98.16;99368.39;1760021;80;21025;-45
2022/10/23 10:00:17;;;;;;;19.07;12.95;;;;;;;14.39;99.49;99364.01;1759044;80;21045;-44
2022/10/23 10:03:00;;;;;;;22.42;12.70;;;;;;;14.48;97.79;99359.88;1756279;80;21054;-47
2022/10/23 10:05:38;;;;;;;18.23;12.65;;;;;;;14.68;98.40;99360.27;1757135;80;21026;-46
2022/10/23 10:08:33;;;;;;;15.40;11.80;;;;;;;14.71;96.71;99370.66;1703879;82;21085;-47
2022/10/23 10:11:21;;;;;;;22.65;13.22;;;;;;;14.66;95.94;99376.75;1751866;80;21030;-45
2022/10/23 10:13:56;;;;;;;20.82;12.18;;;;;;;14.62;95.59;99373.47;1751106;81;20991;-45
2022/10/23 10:16:34;;;;;;;19.20;12.15;;;;;;;14.74;96.85;99365.98;1709959;82;21010;-46
2022/10/23 10:19:15;;;;;;;21.48;11.97;;;;;;;14.74;95.85;99359.86;1705427;83;21038;-46
2022/10/23 10:22:17;;;;;;;27.07;13.93;;;;;;;14.69;95.49;99356.69;1696065;83;21022;-45
2022/10/23 10:25:02;;;;;;;19.75;11.68;;;;;;;14.71;95.59;99364.03;1709144;83;21041;-46
2022/10/23 10:27:55;;;;;;;21.15;11.33;;;;;;;14.68;95.21;99374.38;1702215;83;21549;-46
2022/10/23 10:30:23;;;;;;;16.27;10.35;;;;;;;14.62;95.13;99362.05;1702947;83;21026;-45
2022/10/23 10:33:16;;;;;;;19.27;10.68;;;;;;;14.53;94.89;99374.92;1704402;83;21024;-46
2022/10/23 10:36:16;;;;;;;16.37;10.50;;;;;;;14.40;94.75;99376.75;1700039;83;21026;-46
2022/10/23 10:38:53;;;;;;;19.50;11.60;;;;;;;14.43;95.15;99380.52;1698334;83;21037;-46
2022/10/23 10:41:49;;;;;;;23.18;14.75;;;;;;;14.34;95.44;99370.58;1698313;83;21074;-47
2022/10/23 10:44:47;;;;;;;22.25;12.75;;;;;;;14.34;95.86;99374.06;1581872;89;21111;-46
2022/10/23 10:47:32;;;;;;;17.95;12.73;;;;;;;14.36;95.80;99369.50;1593172;88;21065;-48
2022/10/23 10:50:21;;;;;;;17.67;13.83;;;;;;;14.35;95.46;99378.86;1582996;88;21652;-46
2022/10/23 10:53:19;;;;;;;20.95;13.18;;;;;;;14.37;95.77;99375.17;1594885;89;21096;-46
2022/10/23 10:55:50;;;;;;;19.17;12.03;;;;;;;14.40;95.22;99370.14;1621592;84;21001;-46
2022/10/23 10:58:29;;;;;;;26.68;15.98;;;;;;;14.37;94.72;99376.95;1663776;84;21602;-47
2022/10/23 11:01:00;;;;;;;31.17;17.95;;;;;;;14.48;95.11;99375.75;1660917;84;21543;-46
2022/10/23 11:03:40;;;;;;;20.17;12.53;;;;;;;14.53;95.21;99385.52;1662463;84;21079;-46
2022/10/23 11:06:17;;;;;;;21.87;13.60;;;;;;;14.47;94.65;99378.02;1639171;85;21045;-46
2022/10/23 11:08:44;;;;;;;;;;;;;;;14.46;94.84;99367.08;1668353;84;21029;-45
2022/10/23 11:11:16;;;;;;;19.67;11.97;;;;;;;14.45;94.79;99372.47;1663692;84;20205;-45
2022/10/23 11:13:44;;;;;;;20.97;12.33;;;;;;;14.53;95.05;99360.37;1664881;84;21475;-45
2022/10/23 11:16:25;;;;;;;17.07;11.03;;;;;;;14.57;95.05;99364.55;1619856;85;21567;-46
2022/10/23 11:19:06;;;;;;;17.85;11.33;;;;;;;14.55;94.34;99353.20;1671100;81;21033;-46
2022/10/23 11:21:44;;;;;;;20.15;11.45;;;;;;;14.62;94.76;99352.78;1751233;80;22054;-45
2022/10/23 11:24:54;;;;;;;15.63;10.40;;;;;;;14.71;94.81;99348.16;1755590;80;21519;-47
2022/10/23 11:27:49;;;;;;;15.43;11.05;;;;;;;14.73;94.51;99347.56;1751325;79;21518;-47
2022/10/23 11:30:21;;;;;;;16.55;10.88;;;;;;;14.79;94.25;99347.14;1754113;80;21041;-45
2022/10/23 11:32:59;;;;;;;26.17;10.48;;;;;;;14.89;94.52;99346.83;1744439;80;21487;-45
2022/10/23 11:35:51;;;;;;;16.00;9.93;;;;;;;14.93;93.97;99351.42;1754457;81;21017;-46
2022/10/23 11:38:28;;;;;;;16.20;10.28;;;;;;;15.00;94.36;99347.86;1756056;81;21014;-48